Time;durP1;ratioP1;P1;durP2;ratioP2;P2;SDS_P1;SDS_P2;PMS_P1;PMS_P2;Temp;Humidity;BMP_temperature;BMP_pressure;BME280_temperature;BME280_humidity;BME280_pressure;Samples;Min_cycle;Max_cycle;Signal;HPM_P1;HPM_P2
2023/03/14 00:00:07;;;;;;;10.30;8.23;;;;;;;10.43;76.95;97813.31;5035203;28;20484;-73
2023/03/14 00:02:33;;;;;;;10.85;6.80;;;;;;;10.36;77.14;97815.53;5035090;28;20029;-73
2023/03/14 00:04:58;;;;;;;9.90;6.72;;;;;;;10.34;77.00;97816.63;5034792;28;20029;-72
2023/03/14 00:07:24;;;;;;;8.85;5.97;;;;;;;10.38;76.95;97821.47;5034972;28;20448;-73
2023/03/14 00:09:50;;;;;;;9.95;6.28;;;;;;;10.47;77.13;97849.41;5033355;28;20437;-73
2023/03/14 00:12:15;;;;;;;10.60;7.70;;;;;;;10.49;76.78;97836.28;5034711;28;20061;-73
2023/03/14 00:14:42;;;;;;;10.65;7.70;;;;;;;10.48;76.90;97842.44;5034423;28;20420;-73
2023/03/14 00:17:08;;;;;;;8.95;6.82;;;;;;;10.42;76.46;97827.28;5034982;28;20029;-73
2023/03/14 00:19:33;;;;;;;8.55;6.43;;;;;;;10.38;76.71;97818.88;5034577;28;20025;-73
2023/03/14 00:21:58;;;;;;;7.38;5.88;;;;;;;10.45;76.45;97806.25;5034443;28;20485;-73
2023/03/14 00:24:24;;;;;;;7.05;5.30;;;;;;;10.61;76.42;97835.34;5034650;28;20033;-73
2023/03/14 00:26:49;;;;;;;8.05;5.90;;;;;;;10.54;75.86;97818.56;5034550;28;20477;-73
2023/03/14 00:29:14;;;;;;;8.63;6.47;;;;;;;10.56;75.92;97814.06;5034794;28;20038;-73
2023/03/14 00:31:40;;;;;;;8.32;5.95;;;;;;;10.76;76.05;97851.59;5034334;28;20453;-73
2023/03/14 00:34:05;;;;;;;8.82;5.72;;;;;;;10.69;75.73;97813.94;5034537;28;20029;-73
2023/03/14 00:36:31;;;;;;;7.78;5.50;;;;;;;10.69;75.31;97817.38;5034408;28;20461;-73
2023/03/14 00:38:56;;;;;;;9.75;6.47;;;;;;;10.70;75.43;97813.84;5034022;28;20116;-73
2023/03/14 00:41:23;;;;;;;9.35;6.75;;;;;;;10.69;75.24;97809.56;5034178;28;20017;-73
2023/03/14 00:43:49;;;;;;;8.68;5.90;;;;;;;10.86;74.99;97813.47;5034124;28;20033;-73
2023/03/14 00:46:15;;;;;;;11.55;6.38;;;;;;;10.96;75.18;97832.69;5033791;28;20034;-73
2023/03/14 00:48:40;;;;;;;9.55;6.63;;;;;;;11.01;75.63;97853.16;5033626;28;20040;-73
2023/03/14 00:51:07;;;;;;;10.45;8.18;;;;;;;10.87;75.96;97848.16;5034114;28;20076;-72
2023/03/14 00:53:36;;;;;;;11.52;6.68;;;;;;;10.92;76.23;97872.94;5033971;28;20036;-73
2023/03/14 00:56:04;;;;;;;9.40;7.13;;;;;;;10.92;76.46;97892.94;5033636;28;20025;-73
2023/03/14 00:58:29;;;;;;;11.82;6.32;;;;;;;10.90;77.31;97895.66;5033962;28;20025;-73
2023/03/14 01:00:55;;;;;;;9.80;6.97;;;;;;;10.88;77.97;97900.16;5033783;28;20029;-73
2023/03/14 01:03:20;;;;;;;10.82;6.35;;;;;;;10.88;78.07;97909.75;5033934;28;20113;-73
2023/03/14 01:05:45;;;;;;;11.27;5.97;;;;;;;10.84;78.91;97893.53;5033637;28;20025;-73
2023/03/14 01:08:11;;;;;;;8.02;5.95;;;;;;;10.93;80.57;97887.59;5033727;28;20112;-73
2023/03/14 01:10:40;;;;;;;8.82;5.72;;;;;;;10.89;80.89;97875.75;5033515;28;20056;-73
2023/03/14 01:13:06;;;;;;;9.80;6.25;;;;;;;10.72;80.98;97850.19;5033762;28;20063;-73
2023/03/14 01:15:36;;;;;;;8.75;5.75;;;;;;;10.71;81.14;97841.53;5033395;28;20080;-73
2023/03/14 01:18:02;;;;;;;10.70;7.15;;;;;;;10.81;80.56;97844.25;5033241;28;20064;-72
2023/03/14 01:20:27;;;;;;;9.10;6.32;;;;;;;10.82;80.20;97843.31;5033832;28;20025;-73
2023/03/14 01:22:52;;;;;;;12.25;6.20;;;;;;;10.76;80.23;97830.78;5031879;28;20040;-73
2023/03/14 01:25:18;;;;;;;11.68;7.05;;;;;;;10.68;80.30;97812.28;5033560;28;20041;-73
2023/03/14 01:27:43;;;;;;;9.93;7.15;;;;;;;10.85;80.64;97837.88;5033378;28;20377;-73
2023/03/14 01:30:10;;;;;;;10.25;6.53;;;;;;;10.64;81.23;97779.63;5033407;28;20026;-72
2023/03/14 01:32:36;;;;;;;10.80;6.53;;;;;;;10.68;81.50;97783.66;5033295;28;20076;-73
2023/03/14 01:35:01;;;;;;;13.00;8.18;;;;;;;10.64;81.68;97793.47;5033020;28;20489;-73
2023/03/14 01:37:26;;;;;;;14.30;8.77;;;;;;;10.79;82.72;97825.34;5033562;28;20059;-72
2023/03/14 01:39:52;;;;;;;12.88;8.80;;;;;;;10.74;83.34;97812.66;5032803;28;20389;-73
2023/03/14 01:42:17;;;;;;;16.83;8.50;;;;;;;10.78;84.98;97823.66;5033076;28;20377;-73
2023/03/14 01:45:00;;;;;;;13.20;7.25;;;;;;;10.62;86.09;97802.34;5032920;28;20025;-73
2023/03/14 01:47:26;;;;;;;10.55;6.75;;;;;;;10.62;86.30;97803.19;5032999;28;20478;-73
2023/03/14 01:50:11;;;;;;;11.40;7.53;;;;;;;10.32;87.03;97769.06;5032671;28;20029;-73
2023/03/14 01:52:41;;;;;;;8.68;5.20;;;;;;;10.46;87.65;97781.88;5033226;28;20036;-73
2023/03/14 01:55:13;;;;;;;7.05;6.25;;;;;;;10.31;88.60;97725.78;5032792;28;20465;-73
2023/03/14 01:57:43;;;;;;;11.88;7.68;;;;;;;10.16;90.02;97714.75;5032532;28;20025;-73
2023/03/14 02:00:13;;;;;;;12.77;7.53;;;;;;;9.94;91.57;97681.69;5032717;28;20029;-73
2023/03/14 02:02:47;;;;;;;8.23;6.53;;;;;;;9.82;92.04;97654.88;5032570;28;20017;-73
2023/03/14 02:05:17;;;;;;;10.30;7.20;;;;;;;9.69;93.08;97647.16;5032777;28;20159;-73
2023/03/14 02:07:54;;;;;;;11.80;7.40;;;;;;;9.37;93.75;97612.34;5032489;28;20120;-73
2023/03/14 02:10:24;;;;;;;10.30;6.90;;;;;;;9.41;94.76;97639.75;5033072;28;20056;-73
2023/03/14 02:12:52;;;;;;;12.18;8.20;;;;;;;9.43;95.63;97675.06;5032273;28;20043;-73
2023/03/14 02:15:17;;;;;;;11.68;6.90;;;;;;;9.28;96.50;97683.16;5032268;28;20045;-72
2023/03/14 02:17:44;;;;;;;10.73;6.70;;;;;;;9.13;96.87;97664.31;5032550;28;20496;-72
2023/03/14 02:20:23;;;;;;;13.40;7.35;;;;;;;9.14;96.48;97669.41;5032493;28;20033;-73
2023/03/14 02:22:48;;;;;;;12.75;8.00;;;;;;;8.88;95.51;97608.13;5032165;28;20040;-73
2023/03/14 02:25:32;;;;;;;10.50;6.90;;;;;;;9.09;95.54;97640.31;5032371;28;20029;-73
2023/03/14 02:27:58;;;;;;;8.10;6.57;;;;;;;9.03;94.55;97627.81;5032294;28;20151;-73
2023/03/14 02:30:27;;;;;;;12.02;6.32;;;;;;;9.09;94.65;97645.53;5032214;28;20493;-73
2023/03/14 02:32:58;;;;;;;10.02;6.00;;;;;;;9.17;94.13;97639.78;5032061;28;20512;-73
2023/03/14 02:35:27;;;;;;;13.55;7.65;;;;;;;9.02;92.82;97604.53;5032263;28;20057;-73
2023/03/14 02:37:59;;;;;;;9.68;6.47;;;;;;;9.12;90.81;97595.97;5031825;28;20024;-73
2023/03/14 02:40:24;;;;;;;8.93;6.22;;;;;;;9.24;90.15;97600.25;5032128;28;20610;-73
2023/03/14 02:42:49;;;;;;;9.32;5.90;;;;;;;9.37;88.89;97605.38;5032023;28;20275;-73
2023/03/14 02:45:15;;;;;;;9.85;5.82;;;;;;;9.53;87.08;97615.47;5032187;28;20061;-72
2023/03/14 02:47:46;;;;;;;8.98;6.45;;;;;;;9.52;86.48;97594.78;5032052;28;20029;-73
2023/03/14 02:50:17;;;;;;;11.30;6.45;;;;;;;9.69;86.39;97617.72;5032080;28;20123;-73
2023/03/14 02:52:43;;;;;;;14.38;7.72;;;;;;;9.72;86.04;97618.31;5032048;28;20104;-73
2023/03/14 02:55:08;;;;;;;8.60;6.22;;;;;;;9.89;85.50;97609.25;5031974;28;20109;-73
2023/03/14 02:57:33;;;;;;;9.30;6.70;;;;;;;9.80;84.98;97616.91;5032114;28;20104;-72
2023/03/14 03:00:00;;;;;;;10.63;6.38;;;;;;;9.69;84.49;97589.13;5031650;28;20385;-73
2023/03/14 03:02:26;;;;;;;12.25;7.32;;;;;;;9.86;84.16;97603.44;5031926;28;20025;-73
2023/03/14 03:04:52;;;;;;;11.45;8.35;;;;;;;9.80;83.77;97588.31;5031564;28;20034;-73
2023/03/14 03:07:18;;;;;;;9.68;6.07;;;;;;;10.07;83.43;97621.78;5031759;28;20044;-72
2023/03/14 03:09:44;;;;;;;6.90;5.15;;;;;;;10.08;83.25;97611.28;5032212;28;20033;-73
2023/03/14 03:12:09;;;;;;;7.95;5.90;;;;;;;10.14;82.94;97612.56;5035783;28;20044;-73
2023/03/14 03:14:35;;;;;;;8.07;5.85;;;;;;;10.11;82.80;97610.19;5036093;28;20480;-73
2023/03/14 03:17:00;;;;;;;8.25;5.82;;;;;;;10.15;82.58;97604.63;5035634;28;20037;-73
2023/03/14 03:19:25;;;;;;;9.13;5.43;;;;;;;10.16;82.45;97603.72;5035709;28;20117;-73
2023/03/14 03:21:51;;;;;;;9.07;5.65;;;;;;;10.15;82.24;97590.81;5035317;28;20025;-73
2023/03/14 03:24:16;;;;;;;7.45;6.15;;;;;;;9.95;82.32;97569.78;5035847;28;20021;-73
2023/03/14 03:26:41;;;;;;;8.48;5.57;;;;;;;9.91;82.29;97562.34;5035974;28;20025;-73
2023/03/14 03:29:07;;;;;;;8.15;5.45;;;;;;;9.77;81.92;97539.97;5035735;28;20068;-73
2023/03/14 03:31:32;;;;;;;6.72;5.28;;;;;;;10.00;81.80;97577.22;5035566;28;20438;-73
2023/03/14 03:33:57;;;;;;;10.68;5.68;;;;;;;9.96;81.29;97589.63;5035623;28;20115;-73
2023/03/14 03:36:24;;;;;;;7.18;5.45;;;;;;;9.97;81.60;97588.69;5035384;28;20017;-72
2023/03/14 03:38:50;;;;;;;8.30;5.40;;;;;;;9.83;81.16;97552.53;5035318;28;20377;-72
2023/03/14 03:41:15;;;;;;;10.07;6.38;;;;;;;9.75;80.80;97541.88;5035555;28;20068;-72
2023/03/14 03:43:41;;;;;;;9.07;5.13;;;;;;;9.79;80.81;97551.09;5035729;28;20040;-72
2023/03/14 03:46:07;;;;;;;8.27;5.65;;;;;;;9.91;80.91;97563.16;5035517;28;20029;-72
2023/03/14 03:48:33;;;;;;;9.52;5.32;;;;;;;9.73;80.39;97547.22;5035296;28;20034;-72
2023/03/14 03:50:58;;;;;;;9.30;5.00;;;;;;;9.89;80.04;97577.22;5034843;28;20384;-72
2023/03/14 03:53:24;;;;;;;8.65;5.25;;;;;;;9.98;79.97;97573.91;5035313;28;20025;-72
2023/03/14 03:55:49;;;;;;;9.02;5.35;;;;;;;9.97;79.86;97559.25;5035047;28;20029;-72
2023/03/14 03:58:15;;;;;;;11.27;4.95;;;;;;;9.73;79.46;97525.56;5035364;28;20067;-72
2023/03/14 04:00:40;;;;;;;6.95;4.95;;;;;;;9.92;79.61;97549.22;5034970;28;20021;-72
2023/03/14 04:03:05;;;;;;;6.13;5.50;;;;;;;10.10;79.58;97574.72;5034835;28;20480;-72
2023/03/14 04:05:31;;;;;;;9.15;5.60;;;;;;;9.98;79.52;97553.91;5035113;28;20556;-72
2023/03/14 04:07:56;;;;;;;8.07;5.63;;;;;;;10.02;79.41;97530.28;5034851;28;20025;-72
2023/03/14 04:10:21;;;;;;;7.10;5.45;;;;;;;10.14;79.21;97557.94;5034991;28;20088;-72
2023/03/14 04:12:47;;;;;;;9.27;5.55;;;;;;;10.07;79.03;97544.59;5034887;28;20374;-72
2023/03/14 04:15:12;;;;;;;8.27;5.28;;;;;;;10.14;78.95;97553.56;5034420;28;20137;-72
2023/03/14 04:17:37;;;;;;;9.85;5.32;;;;;;;9.94;79.06;97538.69;5034730;28;20477;-72
2023/03/14 04:20:04;;;;;;;10.90;5.05;;;;;;;10.08;79.19;97548.03;5034516;28;20034;-72
2023/03/14 04:22:29;;;;;;;7.35;5.07;;;;;;;10.01;79.22;97526.84;5034703;28;20030;-72
2023/03/14 04:24:55;;;;;;;8.77;5.03;;;;;;;10.09;79.12;97539.28;5034457;28;20033;-72
2023/03/14 04:27:20;;;;;;;7.95;5.43;;;;;;;9.96;78.93;97523.78;5034709;28;20028;-72
2023/03/14 04:29:45;;;;;;;10.85;6.72;;;;;;;9.95;78.95;97516.94;5034685;28;20078;-72
2023/03/14 04:32:12;;;;;;;11.93;6.50;;;;;;;10.03;79.09;97519.78;5034123;28;20092;-72
2023/03/14 04:34:37;;;;;;;11.50;6.57;;;;;;;9.91;78.93;97507.72;5034352;28;20057;-72
2023/03/14 04:37:02;;;;;;;8.55;5.22;;;;;;;9.97;79.15;97518.47;5034233;28;20124;-72
2023/03/14 04:39:28;;;;;;;9.48;6.22;;;;;;;9.95;79.33;97519.56;5034366;28;20108;-72
2023/03/14 04:41:53;;;;;;;8.80;5.15;;;;;;;9.61;79.30;97479.75;5034071;28;20029;-72
2023/03/14 04:44:19;;;;;;;9.63;6.15;;;;;;;9.91;79.53;97518.13;5034340;28;20028;-72
2023/03/14 04:46:44;;;;;;;9.15;4.55;;;;;;;9.69;79.66;97477.34;5034159;28;20030;-72
2023/03/14 04:49:10;;;;;;;8.32;5.28;;;;;;;9.85;79.61;97501.22;5033830;28;20466;-72
2023/03/14 04:51:35;;;;;;;9.27;5.47;;;;;;;9.94;79.53;97494.47;5033958;28;20049;-72
2023/03/14 04:54:00;;;;;;;7.72;5.32;;;;;;;9.98;79.37;97486.31;5033921;28;20022;-72
2023/03/14 04:56:26;;;;;;;9.63;5.68;;;;;;;9.94;79.23;97502.28;5034048;28;20492;-72
2023/03/14 04:58:51;;;;;;;8.15;5.63;;;;;;;9.91;79.09;97487.75;5033835;28;20024;-72
2023/03/14 05:01:17;;;;;;;10.02;5.78;;;;;;;10.05;79.64;97517.88;5033679;28;20526;-72
2023/03/14 05:03:43;;;;;;;7.50;5.15;;;;;;;9.95;79.10;97496.97;5033770;28;20025;-72
2023/03/14 05:06:09;;;;;;;9.63;5.43;;;;;;;9.99;79.46;97487.97;5033469;28;20385;-72
2023/03/14 05:08:34;;;;;;;12.82;7.25;;;;;;;10.12;79.52;97494.81;5033912;28;20492;-72
2023/03/14 05:10:59;;;;;;;8.18;6.35;;;;;;;10.02;79.16;97480.88;5033427;28;20029;-72
2023/03/14 05:13:25;;;;;;;10.38;6.60;;;;;;;10.11;79.52;97503.53;5033709;28;20075;-72
2023/03/14 05:15:51;;;;;;;10.18;6.50;;;;;;;10.02;79.42;97489.50;5033660;28;20050;-72
2023/03/14 05:18:17;;;;;;;12.10;6.57;;;;;;;10.04;79.18;97489.41;5033187;28;20477;-72
2023/03/14 05:20:43;;;;;;;63.22;31.73;;;;;;;10.00;79.63;97484.44;5033276;28;20037;-72
2023/03/14 05:23:09;;;;;;;60.70;31.65;;;;;;;10.09;79.54;97485.47;5032005;28;20028;-72
2023/03/14 05:25:34;;;;;;;60.03;30.88;;;;;;;10.11;79.61;97472.34;5033343;28;20095;-72
2023/03/14 05:27:59;;;;;;;17.33;7.40;;;;;;;10.15;79.56;97478.94;5033447;28;20055;-71
2023/03/14 05:30:25;;;;;;;82.93;49.13;;;;;;;10.05;79.93;97473.66;5031925;28;20022;-72
2023/03/14 05:32:50;;;;;;;88.47;61.78;;;;;;;10.06;79.67;97453.66;5031307;28;20026;-72
2023/03/14 05:35:15;;;;;;;20.13;12.32;;;;;;;10.06;79.80;97475.31;5032935;28;20045;-72
2023/03/14 05:37:41;;;;;;;11.88;10.68;;;;;;;10.21;79.79;97496.69;5033573;28;20093;-72
2023/03/14 05:40:08;;;;;;;13.15;10.90;;;;;;;10.16;79.98;97491.03;5032946;28;20037;-72
2023/03/14 05:42:34;;;;;;;14.95;10.35;;;;;;;10.04;80.12;97477.22;5033317;28;20021;-72
2023/03/14 05:44:59;;;;;;;12.57;8.32;;;;;;;10.18;80.50;97509.94;5032943;28;20029;-72
2023/03/14 05:47:25;;;;;;;11.60;8.40;;;;;;;10.24;80.05;97505.09;5033101;28;20021;-72
2023/03/14 05:49:50;;;;;;;13.15;8.02;;;;;;;10.16;79.90;97486.66;5032899;28;20170;-73
2023/03/14 05:52:17;;;;;;;14.93;9.05;;;;;;;10.30;79.59;97498.59;5032950;28;20028;-72
2023/03/14 05:54:42;;;;;;;12.95;9.07;;;;;;;10.10;79.60;97463.72;5033014;28;20037;-72
2023/03/14 05:57:07;;;;;;;13.00;8.43;;;;;;;10.38;79.66;97518.78;5032706;28;20025;-73
2023/03/14 05:59:32;;;;;;;14.95;9.38;;;;;;;10.40;79.44;97515.09;5032842;28;20029;-73
2023/03/14 06:01:58;;;;;;;13.98;8.13;;;;;;;10.19;79.61;97503.78;5032534;28;20021;-72
2023/03/14 06:04:24;;;;;;;15.35;10.85;;;;;;;10.13;79.81;97499.06;5032662;28;20029;-72
2023/03/14 06:06:49;;;;;;;16.58;13.35;;;;;;;10.27;79.77;97530.03;5032866;28;20025;-72
2023/03/14 06:09:15;;;;;;;15.80;10.15;;;;;;;10.06;80.18;97503.91;5032330;28;20461;-73
2023/03/14 06:11:40;;;;;;;14.02;11.07;;;;;;;10.19;80.40;97506.38;5032682;28;20025;-72
2023/03/14 06:14:05;;;;;;;14.23;10.15;;;;;;;10.29;80.12;97502.13;5032356;28;20513;-72
2023/03/14 06:16:31;;;;;;;21.70;18.95;;;;;;;10.23;80.32;97482.59;5032348;28;20405;-72
2023/03/14 06:18:57;;;;;;;29.52;25.80;;;;;;;10.30;80.33;97482.16;5032321;28;20041;-72
2023/03/14 06:21:22;;;;;;;26.42;23.73;;;;;;;10.59;79.71;97508.44;5032249;28;20076;-72
2023/03/14 06:23:47;;;;;;;13.85;12.35;;;;;;;10.58;79.37;97502.41;5032504;28;20034;-73
2023/03/14 06:26:13;;;;;;;16.05;9.40;;;;;;;10.53;79.50;97509.75;5030931;28;20091;-72
2023/03/14 06:28:38;;;;;;;10.40;7.93;;;;;;;10.66;79.66;97535.59;5032327;28;20116;-72
2023/03/14 06:31:04;;;;;;;11.60;8.10;;;;;;;10.87;79.32;97549.53;5032072;28;20021;-72
2023/03/14 06:33:29;;;;;;;10.02;7.35;;;;;;;11.19;78.49;97539.03;5032166;28;20033;-73
2023/03/14 06:35:55;;;;;;;12.88;7.95;;;;;;;11.23;77.79;97495.31;5032365;28;20079;-73
2023/03/14 06:38:20;;;;;;;10.40;6.63;;;;;;;11.62;77.09;97545.06;5031974;28;20037;-72
2023/03/14 06:40:45;;;;;;;9.70;7.05;;;;;;;11.56;76.57;97525.56;5032155;28;20553;-73
2023/03/14 06:43:11;;;;;;;14.13;8.13;;;;;;;11.61;76.64;97533.00;5031793;28;20029;-73
2023/03/14 06:45:36;;;;;;;12.73;8.57;;;;;;;11.56;76.58;97520.34;5031143;28;20021;-72
2023/03/14 06:48:02;;;;;;;12.05;8.48;;;;;;;11.49;76.85;97509.59;5031695;28;20378;-73
2023/03/14 06:50:27;;;;;;;10.70;7.80;;;;;;;11.04;77.39;97516.88;5032116;28;20036;-72
2023/03/14 06:52:53;;;;;;;17.60;8.50;;;;;;;10.93;78.30;97511.72;5032127;28;20108;-73
2023/03/14 06:55:18;;;;;;;11.48;7.22;;;;;;;11.03;79.20;97515.22;5031952;28;20132;-72
2023/03/14 06:57:43;;;;;;;11.88;8.80;;;;;;;11.05;79.65;97507.28;5032064;28;20079;-73
2023/03/14 07:00:11;;;;;;;16.23;9.70;;;;;;;10.76;79.99;97507.91;5031575;28;20389;-72
2023/03/14 07:02:36;;;;;;;13.32;9.88;;;;;;;10.78;80.49;97525.97;5031715;28;20452;-72
2023/03/14 07:05:02;;;;;;;17.25;10.07;;;;;;;10.78;80.43;97534.63;5031701;28;20033;-72
2023/03/14 07:07:28;;;;;;;15.38;9.73;;;;;;;10.60;80.97;97546.53;5031951;28;20079;-72
2023/03/14 07:09:53;;;;;;;11.00;7.93;;;;;;;10.43;81.30;97540.88;5031865;28;20034;-73
2023/03/14 07:12:18;;;;;;;10.93;7.13;;;;;;;10.37;81.83;97536.19;5031489;28;20034;-73
2023/03/14 07:14:44;;;;;;;13.27;7.18;;;;;;;10.46;82.12;97563.25;5031562;28;20037;-72
2023/03/14 07:17:09;;;;;;;10.55;7.57;;;;;;;10.43;82.44;97559.09;5031366;28;20026;-72
2023/03/14 07:19:34;;;;;;;12.00;6.80;;;;;;;10.49;82.80;97550.81;5031689;28;20059;-72
2023/03/14 07:22:00;;;;;;;10.30;7.18;;;;;;;10.29;82.12;97519.53;5031810;28;20156;-72
2023/03/14 07:24:25;;;;;;;12.05;7.55;;;;;;;10.35;82.28;97529.44;5031467;28;20022;-72
2023/03/14 07:26:50;;;;;;;13.02;8.02;;;;;;;10.29;82.36;97527.34;5031760;28;20358;-72
2023/03/14 07:29:15;;;;;;;10.70;6.72;;;;;;;10.33;82.95;97552.16;5031685;28;20543;-72
2023/03/14 07:31:41;;;;;;;9.20;6.85;;;;;;;10.26;82.97;97541.41;5031537;28;20026;-73
2023/03/14 07:34:06;;;;;;;13.23;7.70;;;;;;;10.41;82.46;97552.38;5031328;28;20022;-72
2023/03/14 07:36:32;;;;;;;9.80;7.10;;;;;;;10.25;82.64;97513.75;5031732;28;20049;-72
2023/03/14 07:38:57;;;;;;;11.30;6.38;;;;;;;10.21;82.78;97515.72;5031530;28;20071;-72
2023/03/14 07:41:23;;;;;;;10.82;7.72;;;;;;;10.33;83.01;97529.56;5031302;28;20168;-72
2023/03/14 07:43:48;;;;;;;11.00;7.15;;;;;;;10.38;82.81;97534.41;5031447;28;20470;-72
2023/03/14 07:46:14;;;;;;;10.45;7.18;;;;;;;10.37;82.68;97512.75;5031163;28;20033;-72
2023/03/14 07:48:40;;;;;;;9.35;6.60;;;;;;;10.48;82.96;97523.13;5031323;28;20101;-72
2023/03/14 07:51:05;;;;;;;11.88;6.95;;;;;;;10.45;82.83;97504.34;5031346;28;20036;-72
2023/03/14 07:53:31;;;;;;;12.80;7.47;;;;;;;10.35;82.99;97498.22;5031451;28;20100;-72
2023/03/14 07:55:56;;;;;;;13.55;8.30;;;;;;;10.42;83.36;97509.78;5032160;28;20116;-72
2023/03/14 07:58:22;;;;;;;13.10;8.80;;;;;;;10.35;83.29;97506.03;5034750;28;20381;-72
2023/03/14 08:00:48;;;;;;;11.10;8.10;;;;;;;10.25;83.70;97492.94;5035229;28;20251;-72
2023/03/14 08:03:13;;;;;;;12.85;8.27;;;;;;;10.19;84.27;97530.59;5034625;28;20040;-72
2023/03/14 08:05:39;;;;;;;11.18;7.22;;;;;;;9.95;84.30;97524.75;5035041;28;20389;-72
2023/03/14 08:08:05;;;;;;;9.48;6.93;;;;;;;10.06;84.19;97550.72;5035112;28;20024;-72
2023/03/14 08:10:31;;;;;;;9.82;6.30;;;;;;;9.94;84.56;97549.94;5034837;28;20469;-72
2023/03/14 08:12:58;;;;;;;8.45;7.03;;;;;;;9.83;84.93;97538.69;5034940;28;20251;-72
2023/03/14 08:15:25;;;;;;;10.07;7.70;;;;;;;9.90;85.02;97574.50;5034619;28;20041;-72
2023/03/14 08:17:51;;;;;;;10.75;6.60;;;;;;;9.89;85.41;97585.84;5034955;28;20033;-72
2023/03/14 08:20:17;;;;;;;10.80;7.57;;;;;;;9.83;85.60;97577.69;5034504;28;20079;-72
2023/03/14 08:22:42;;;;;;;8.32;6.95;;;;;;;9.82;85.96;97581.22;5034828;28;20063;-72
2023/03/14 08:25:08;;;;;;;16.00;9.27;;;;;;;9.68;86.41;97577.91;5034507;28;20033;-72
2023/03/14 08:27:33;;;;;;;16.70;11.63;;;;;;;9.68;86.05;97564.09;5034925;28;20026;-72
2023/03/14 08:29:58;;;;;;;15.07;9.95;;;;;;;9.77;86.17;97584.16;5034420;28;20374;-72
2023/03/14 08:32:24;;;;;;;16.17;9.85;;;;;;;9.85;85.91;97581.00;5034032;28;20033;-72
2023/03/14 08:34:50;;;;;;;16.85;8.93;;;;;;;9.79;85.24;97579.69;5034592;28;20029;-72
2023/03/14 08:37:15;;;;;;;14.75;9.00;;;;;;;9.69;85.52;97560.53;5034227;28;20362;-72
2023/03/14 08:39:40;;;;;;;14.13;8.63;;;;;;;9.73;85.47;97570.59;5034512;28;20029;-72
2023/03/14 08:42:06;;;;;;;12.60;8.35;;;;;;;9.73;85.40;97560.22;5034287;28;20028;-72
2023/03/14 08:44:31;;;;;;;9.65;6.90;;;;;;;9.75;85.26;97573.91;5034202;28;20036;-72
2023/03/14 08:46:56;;;;;;;9.98;7.05;;;;;;;9.89;85.11;97579.81;5034528;28;20029;-72
2023/03/14 08:49:22;;;;;;;12.02;7.10;;;;;;;9.87;85.03;97581.72;5034110;28;20033;-72
2023/03/14 08:51:47;;;;;;;10.35;7.00;;;;;;;9.88;85.00;97573.78;5034274;28;20171;-72
2023/03/14 08:54:13;;;;;;;10.80;6.63;;;;;;;10.07;84.72;97601.81;5033819;28;20052;-72
2023/03/14 08:56:38;;;;;;;10.32;6.97;;;;;;;10.18;85.07;97591.41;5034163;28;20033;-72
2023/03/14 08:59:04;;;;;;;9.90;6.00;;;;;;;10.26;84.29;97592.59;5033938;28;20029;-72
2023/03/14 09:01:29;;;;;;;12.75;6.47;;;;;;;10.27;83.58;97582.06;5033846;28;20116;-72
2023/03/14 09:03:55;;;;;;;8.82;5.78;;;;;;;10.29;83.36;97571.56;5034236;28;20030;-72
2023/03/14 09:06:20;;;;;;;7.97;6.03;;;;;;;10.52;83.43;97587.94;5033693;28;20025;-72
2023/03/14 09:08:45;;;;;;;7.78;6.05;;;;;;;10.54;83.21;97584.28;5032924;28;20116;-72
2023/03/14 09:11:11;;;;;;;7.70;5.80;;;;;;;10.44;82.94;97567.72;5033522;28;20060;-72
2023/03/14 09:13:37;;;;;;;10.00;6.65;;;;;;;10.47;82.83;97570.94;5033705;28;20056;-72
2023/03/14 09:16:02;;;;;;;8.57;6.10;;;;;;;10.81;82.13;97559.59;5033177;28;20041;-72
2023/03/14 09:18:28;;;;;;;8.02;6.72;;;;;;;10.67;81.63;97565.91;5033742;28;20042;-72
2023/03/14 09:20:55;;;;;;;9.88;6.05;;;;;;;10.77;82.58;97581.63;5033789;28;20040;-72
2023/03/14 09:23:21;;;;;;;11.40;5.57;;;;;;;10.75;82.45;97555.72;5033361;28;20108;-72
2023/03/14 09:25:46;;;;;;;7.00;5.50;;;;;;;10.60;82.83;97555.16;5033625;28;20105;-72
2023/03/14 09:28:12;;;;;;;7.65;5.80;;;;;;;10.60;83.43;97564.75;5033248;28;20025;-72
2023/03/14 09:30:38;;;;;;;9.80;6.43;;;;;;;10.68;83.88;97594.44;5033317;28;20068;-72
2023/03/14 09:33:03;;;;;;;8.05;5.95;;;;;;;10.69;83.71;97588.25;5033513;28;20017;-72
2023/03/14 09:35:29;;;;;;;10.88;7.90;;;;;;;10.65;84.10;97555.59;5033192;28;20036;-72
2023/03/14 09:37:54;;;;;;;11.65;7.65;;;;;;;10.93;84.03;97585.47;5033132;28;20029;-72
2023/03/14 09:40:20;;;;;;;11.65;7.55;;;;;;;10.97;83.64;97568.66;5031776;28;20090;-72
2023/03/14 09:42:49;;;;;;;9.88;7.00;;;;;;;11.15;83.51;97584.53;5033208;28;20025;-72
2023/03/14 09:45:24;;;;;;;12.20;8.07;;;;;;;11.16;83.70;97580.16;5032860;28;20033;-72
2023/03/14 09:47:49;;;;;;;10.25;6.97;;;;;;;11.09;82.64;97566.81;5033009;28;20515;-72
2023/03/14 09:50:15;;;;;;;12.93;7.10;;;;;;;11.45;82.27;97609.03;5032965;28;20029;-72
2023/03/14 09:52:47;;;;;;;9.07;5.85;;;;;;;11.59;81.70;97580.06;5033040;28;20139;-72
2023/03/14 09:55:19;;;;;;;7.47;5.15;;;;;;;11.53;82.25;97601.41;5032723;28;20067;-72
2023/03/14 09:57:48;;;;;;;9.90;6.38;;;;;;;11.47;82.41;97602.75;5032784;28;20030;-72
2023/03/14 10:00:19;;;;;;;8.75;6.03;;;;;;;11.61;82.49;97630.28;5033006;28;20441;-72
2023/03/14 10:02:59;;;;;;;10.13;6.88;;;;;;;11.53;82.31;97635.31;5037178;28;20021;-73
2023/03/14 10:05:27;;;;;;;10.48;7.22;;;;;;;11.43;83.61;97624.00;5041300;28;20525;-72
2023/03/14 10:07:53;;;;;;;11.68;7.20;;;;;;;11.36;83.65;97615.84;5036816;28;20224;-72
2023/03/14 10:10:20;;;;;;;12.10;8.18;;;;;;;11.33;83.59;97599.63;5032263;28;20540;-72
2023/03/14 10:12:48;;;;;;;12.85;8.70;;;;;;;11.51;82.74;97610.34;5032512;28;20029;-72
2023/03/14 10:15:18;;;;;;;10.13;6.53;;;;;;;11.63;82.09;97607.53;5031949;28;20496;-72
2023/03/14 10:17:52;;;;;;;10.82;6.13;;;;;;;11.76;81.88;97633.41;5032389;28;20381;-72
2023/03/14 10:20:34;;;;;;;8.43;6.32;;;;;;;11.63;82.68;97630.13;5031772;28;20386;-72
2023/03/14 10:23:02;;;;;;;10.27;6.13;;;;;;;11.34;83.74;97602.13;5032301;28;20030;-72
2023/03/14 10:25:30;;;;;;;8.27;5.57;;;;;;;11.48;83.49;97603.56;5032282;28;20029;-72
2023/03/14 10:27:55;;;;;;;6.85;5.10;;;;;;;11.55;83.96;97585.66;5032431;28;20033;-72
2023/03/14 10:30:32;;;;;;;14.50;6.07;;;;;;;11.57;82.57;97592.38;5032136;28;20028;-72
2023/03/14 10:33:08;;;;;;;8.43;5.70;;;;;;;11.76;82.85;97607.31;5032269;28;20033;-72
2023/03/14 10:35:34;;;;;;;7.70;5.45;;;;;;;11.96;82.61;97603.06;5032341;28;20032;-72
2023/03/14 10:38:02;;;;;;;9.23;5.50;;;;;;;12.17;81.34;97603.00;5032654;28;20040;-72
2023/03/14 10:40:31;;;;;;;7.18;5.05;;;;;;;12.09;81.50;97579.34;5032109;28;20045;-72
2023/03/14 10:42:58;;;;;;;7.53;5.45;;;;;;;12.43;80.63;97592.91;5031911;28;20120;-72
2023/03/14 10:45:38;;;;;;;8.18;4.55;;;;;;;12.86;79.37;97597.84;5031671;28;20051;-72
2023/03/14 10:48:23;;;;;;;7.13;5.53;;;;;;;12.72;79.94;97598.22;5032334;28;20083;-72
2023/03/14 10:51:17;;;;;;;10.00;6.60;;;;;;;12.86;79.62;97578.72;5032041;28;20037;-72
2023/03/14 10:53:46;;;;;;;7.20;5.30;;;;;;;13.06;78.60;97556.00;5009699;28;20038;-72
2023/03/14 10:56:13;;;;;;;8.23;4.70;;;;;;;12.97;78.47;97576.78;5009711;28;20034;-72
2023/03/14 10:58:43;;;;;;;6.53;5.13;;;;;;;12.97;80.08;97574.16;5009413;28;20040;-72
2023/03/14 11:01:22;;;;;;;8.55;5.13;;;;;;;13.23;78.66;97568.41;5009779;28;20053;-72
2023/03/14 11:04:19;;;;;;;6.53;4.65;;;;;;;13.15;78.58;97569.09;5009807;28;20414;-72
2023/03/14 11:07:01;;;;;;;5.70;4.00;;;;;;;13.15;78.72;97557.81;4951509;28;20047;-72
2023/03/14 11:09:36;;;;;;;9.18;4.00;;;;;;;13.54;77.42;97565.63;4951283;29;20042;-72
2023/03/14 11:12:20;;;;;;;7.43;4.60;;;;;;;13.48;76.62;97569.63;4951324;29;20443;-72
2023/03/14 11:14:54;;;;;;;8.40;4.07;;;;;;;13.38;76.65;97556.56;4951362;28;20063;-72
2023/03/14 11:17:30;;;;;;;6.00;4.15;;;;;;;13.56;76.67;97553.22;4950867;29;20479;-72
2023/03/14 11:20:11;;;;;;;6.10;4.00;;;;;;;13.37;75.81;97564.56;4951207;29;20027;-72
2023/03/14 11:22:51;;;;;;;6.30;3.55;;;;;;;13.25;76.98;97558.66;4951068;28;20455;-72
2023/03/14 11:25:22;;;;;;;7.30;4.00;;;;;;;13.39;76.93;97545.16;4951495;29;20031;-72
2023/03/14 11:28:29;;;;;;;8.13;4.05;;;;;;;13.37;76.61;97541.84;4951288;29;20027;-72
2023/03/14 11:31:16;;;;;;;5.45;3.88;;;;;;;13.31;77.22;97502.38;4974794;28;20113;-72